Latest Coastal Weather Observations for Albany Airport

IDW60701

Issued at 1:25 pm WST Friday 25 April 2014 (issued every 10 minutes, with the page automatically refreshed every 10 minutes)

About coastal observations | Map of coastal stations | Coastal observations for WA | Marine services | Other Formats
Station Details ID: 009999 Name: ALBANY AIRPORT Lat: -34.94 Lon: 117.82 Height: 68.4 m
Data from the previous 72 hours. | See also: Recent months at Albany Airport
Date/Time
WST
Temp

°C
Wind Pressure Rain
since 9am
mm
Weather Cloud Vis
km
Sea
Height
m
Swell
Dir
 
Speed
knots
Gust
knots
hPa Trend Height
m
Period
s
Dir
25/01:00pm 16.7 S 7 11 1013.9 - 0.6 Showers Partly cloudy 10 - - - -
25/12:30pm 17.0 SSW 9 13 1014.0 - 0.0 Showers Mostly clear 10 - - - -
25/12:00pm 18.4 S 11 16 1013.8 R 0.0 Showers Mostly cloudy 30 - - - -
25/11:30am 20.5 S 9 14 1013.7 - 0.0 - Partly cloudy 10 - - - -
25/11:00am 19.7 S 11 15 1013.8 - 0.0 - Partly cloudy 10 - - - -
25/10:30am 19.2 S 11 13 1013.7 - 0.0 - Partly cloudy 10 - - - -
25/10:00am 18.4 S 11 15 1013.6 - 0.0 - Partly cloudy 10 - - - -
25/09:30am 17.8 S 8 11 1013.4 - 0.0 Showers Partly cloudy 10 - - - -
25/09:00am 19.9 S 9 13 1012.9 R 0.0 Distant precip. Cloudy 30 - - - -
25/08:30am 17.6 S 7 10 1012.9 - 0.0 - Mostly clear 10 - - - -
25/08:00am 16.4 SSW 5 7 1012.4 - 0.0 - Mostly clear 10 - - - -
25/07:30am 14.5 WSW 4 5 1011.7 - 0.0 - Mostly clear 10 - - - -
25/07:00am 13.9 W 4 6 1011.2 - 0.0 - Mostly clear 10 - - - -
25/06:30am 13.4 WSW 1 5 1010.9 - 0.0 - Mostly clear 10 - - - -
25/06:00am 13.6 CALM 0 0 1010.8 R 0.0 Fine Mostly cloudy 30 - - - -
25/05:30am 13.9 SW 4 4 1010.8 - 0.0 - Partly cloudy 10 - - - -
25/05:00am 13.9 WSW 4 4 1010.7 - 0.0 - Partly cloudy 10 - - - -
25/04:30am 13.7 WSW 3 4 1010.4 - 0.0 - - 10 - - - -
25/04:00am 13.9 WSW 4 5 1010.4 - 0.0 - - 10 - - - -
25/03:30am 14.0 WSW 4 4 1010.1 - 0.0 - - 10 - - - -
25/03:00am 14.5 SSW 5 5 1009.9 - 0.0 - - 10 - - - -
25/02:30am 14.8 SSW 5 6 1009.9 - 0.0 - - 10 - - - -
25/02:00am 15.1 SSW 4 4 1010.0 - 0.0 - Partly cloudy 10 - - - -
25/01:30am 14.6 SSW 5 6 1010.0 - 0.0 - Partly cloudy 10 - - - -
25/01:00am 14.8 S 5 5 1009.8 - 0.0 - - 10 - - - -
25/12:30am 14.7 SSW 5 6 1009.7 - 0.0 - - 10 - - - -
25/12:00am 14.9 SW 4 5 1009.6 - 0.0 - Mostly clear 10 - - - -
 
Date/Time
WST
Temp

°C
Wind Pressure Rain
since 9am
mm
Weather Cloud Vis
km
Sea
Height
m
Swell
Dir
 
Speed
knots
Gust
knots
hPa Trend Height
m
Period
s
Dir
24/11:30pm 15.2 CALM 0 0 1009.9 - 0.0 - Partly cloudy 10 - - - -
24/11:00pm 15.7 CALM 0 0 1010.1 - 0.0 - Partly cloudy 10 - - - -
24/10:30pm 16.0 CALM 0 0 1010.4 - 0.0 - Partly cloudy 10 - - - -
24/10:00pm 16.1 ESE 1 3 1010.3 - 0.0 - Partly cloudy 10 - - - -
24/09:30pm 15.9 ESE 3 4 1010.4 - 0.0 - Partly cloudy 10 - - - -
24/09:00pm 16.1 ESE 5 6 1010.3 - 0.0 - Mostly clear 10 - - - -
24/08:30pm 16.5 SE 6 7 1010.6 - 0.0 - Partly cloudy 10 - - - -
24/08:00pm 15.9 SE 4 5 1010.8 - 0.0 - Partly cloudy 10 - - - -
24/07:30pm 15.6 E 5 5 1010.6 - 0.0 - Partly cloudy 10 - - - -
24/07:00pm 16.0 ESE 5 6 1010.3 - 0.0 - Partly cloudy 10 - - - -
24/06:30pm 16.7 ESE 6 7 1010.1 - 0.0 - Partly cloudy 10 - - - -
24/06:00pm 17.5 ESE 7 8 1009.8 - 0.0 - - 10 - - - -
24/05:30pm 18.1 ESE 8 11 1009.4 - 0.0 - - 10 - - - -
24/05:00pm 18.6 ESE 10 12 1009.1 - 0.0 - Partly cloudy 10 - - - -
24/04:30pm 19.0 ESE 9 13 1009.2 - 0.0 - Partly cloudy 10 - - - -
24/04:00pm 19.8 ESE 11 14 1009.0 - 0.0 - - 10 - - - -
24/03:30pm 20.0 ESE 11 14 1009.0 - 0.0 - - 10 - - - -
24/03:00pm 20.2 ESE 11 14 1008.9 - 0.0 - - 10 - - - -
24/02:30pm 21.3 ESE 10 13 1009.0 - 0.0 - - 10 - - - -
24/02:00pm 20.8 E 9 11 1009.5 - 0.0 - - 10 - - - -
24/01:30pm 20.8 ENE 9 11 1009.7 - 0.0 - - 10 - - - -
24/01:00pm 21.2 ENE 8 10 1010.0 - 0.0 - - 10 - - - -
24/12:30pm 20.7 E 9 11 1010.6 - 0.0 - - 10 - - - -
24/12:00pm 19.8 E 11 14 1011.4 F 0.0 Fine Cloudy 40 - - - -
24/11:30am 19.8 ENE 9 13 1012.3 - 0.0 - - 10 - - - -
24/11:00am 18.9 NE 9 11 1013.0 - 0.0 - - 10 - - - -
24/10:30am 18.3 NE 11 15 1013.6 - 0.0 - - 10 - - - -
24/10:00am 17.2 NE 14 17 1013.9 - 0.0 - - 10 - - - -
24/09:30am 17.2 NE 10 13 1014.3 - 0.0 - - 10 - - - -
24/09:00am 15.5 ENE 7 8 1014.7 F 0.0 Fine Cloudy 20 - - - -
24/08:30am 12.9 NE 6 8 1015.0 - 0.0 - - 10 - - - -
24/08:00am 12.0 ENE 5 6 1015.2 - 0.0 - - 10 - - - -
24/07:30am 10.0 ENE 5 5 1015.3 - 0.0 Fog patches Cloudy 10 - - - -
24/07:18am 9.2 ENE 5 5 1015.3 - 0.0 Fog patches Cloudy 10 - - - -
24/07:00am 8.8 NE 4 5 1015.4 - 0.0 Shallow fog Partly cloudy 6 - - - -
24/06:30am 8.8 NE 4 5 1015.3 - 0.0 Shallow fog Partly cloudy 5 - - - -
24/06:00am 9.9 NNE 5 5 1015.4 F 0.0 Shallow fog Partly cloudy 5 - - - -
24/05:33am 9.3 NE 5 6 1015.4 - 0.0 - - 10 - - - -
24/05:30am 9.4 NE 5 6 1015.4 - 0.0 - - 10 - - - -
24/05:00am 9.2 NE 5 6 1015.5 - 0.0 - - 2 - - - -
24/04:30am 9.2 NNE 5 6 1015.5 - 0.0 - Partly cloudy 1 - - - -
24/04:00am 9.8 NE 3 4 1015.4 - 0.0 - - 0.4 - - - -
24/03:30am 9.8 NE 3 4 1015.5 - 0.0 - Partly cloudy 0.7 - - - -
24/03:00am 9.4 NE 4 4 1015.6 - 0.0 - - 0.3 - - - -
24/02:33am 9.2 NE 5 6 1015.8 - 0.0 - - 4 - - - -
24/02:30am 9.7 NE 5 6 1015.9 - 0.0 - - 10 - - - -
24/02:01am 9.2 ENE 4 5 1016.0 - 0.0 - Partly cloudy 10 - - - -
24/02:00am 9.2 ENE 4 5 1016.1 - 0.0 - Partly cloudy 10 - - - -
24/01:30am 7.8 NE 4 5 1016.5 - 0.0 - Partly cloudy 0.6 - - - -
24/01:00am 10.1 NNE 4 5 1016.7 - 0.0 - - 1 - - - -
24/12:30am 9.4 N 3 4 1016.7 - 0.0 - - 0.6 - - - -
24/12:00am 8.5 N 5 6 1016.9 - 0.0 - - 0.6 - - - -
 
Date/Time
WST
Temp

°C
Wind Pressure Rain
since 9am
mm
Weather Cloud Vis
km
Sea
Height
m
Swell
Dir
 
Speed
knots
Gust
knots
hPa Trend Height
m
Period
s
Dir
23/11:30pm 9.2 N 6 7 1017.2 - 0.0 - Partly cloudy 0.6 - - - -
23/11:00pm 8.5 N 4 6 1017.3 - 0.0 - Partly cloudy 5 - - - -
23/10:36pm 9.0 N 6 7 1017.6 - 0.0 - Partly cloudy 0.5 - - - -
23/10:30pm 9.7 N 4 5 1017.6 - 0.0 - Partly cloudy 1 - - - -
23/10:28pm 9.9 NNE 4 5 1017.7 - 0.0 - Partly cloudy 4 - - - -
23/10:25pm 10.2 NNE 4 4 1017.7 - 0.0 - Partly cloudy 10 - - - -
23/10:12pm 10.4 N 5 5 1017.7 - 0.0 - Partly cloudy 4 - - - -
23/10:00pm 10.4 N 3 4 1017.7 - 0.0 - Partly cloudy 0.9 - - - -
23/09:30pm 11.2 CALM 0 0 1017.8 - 0.0 - - 0.2 - - - -
23/09:00pm 11.8 E 3 3 1017.9 - 0.0 - - 1 - - - -
23/08:45pm 11.9 S 3 4 1017.9 - 0.0 - - 6 - - - -
23/08:30pm 12.1 S 3 3 1017.8 - 0.0 - - 10 - - - -
23/08:00pm 12.0 SSE 2 4 1017.8 - 0.0 - - 10 - - - -
23/07:30pm 12.2 S 4 5 1018.1 - 0.0 - - 10 - - - -
23/07:00pm 13.0 SW 2 3 1017.9 - 0.0 - - 10 - - - -
23/06:30pm 13.9 SSE 4 5 1017.6 - 0.0 - - 10 - - - -
23/06:00pm 15.5 S 5 6 1017.5 - 0.0 - - 10 - - - -
23/05:30pm 16.6 S 4 5 1017.2 - 0.0 - - 10 - - - -
23/05:00pm 17.9 S 7 10 1016.9 - 0.0 - Mostly clear 10 - - - -
23/04:30pm 19.0 S 8 11 1016.9 - 0.0 - Mostly clear 10 - - - -
23/04:00pm 19.7 S 7 10 1016.8 - 0.0 - Mostly clear 10 - - - -
23/03:30pm 19.7 SSW 8 11 1016.7 - 0.0 - Mostly clear 10 - - - -
23/03:00pm 20.0 S 9 13 1016.7 R 0.0 Fine Partly cloudy 30 - - - -
23/02:30pm 20.4 WSW 7 11 1016.7 - 0.0 - Partly cloudy 10 - - - -
23/02:00pm 19.8 SW 8 10 1016.9 - 0.0 - Partly cloudy 10 - - - -
23/01:30pm 20.1 WSW 7 11 1016.9 - 0.0 - Partly cloudy 10 - - - -
23/01:00pm 19.6 WSW 7 11 1017.1 - 0.0 - Partly cloudy 10 - - - -
23/12:30pm 19.4 SSW 10 13 1017.3 - 0.0 - Partly cloudy 10 - - - -
23/12:00pm 18.9 SW 6 8 1017.6 R 0.0 Fine Mostly cloudy 30 - - - -
23/11:30am 19.0 SW 7 12 1017.8 - 0.0 - Partly cloudy 10 - - - -
23/11:00am 18.5 WSW 7 10 1018.1 - 0.0 - Partly cloudy 10 - - - -
23/10:30am 17.5 WNW 7 9 1018.2 - 0.0 - Partly cloudy 10 - - - -
23/10:00am 16.7 WSW 8 11 1018.2 - 0.0 - Partly cloudy 10 - - - -
23/09:30am 15.9 NW 6 7 1018.2 - 0.0 - Mostly clear 10 - - - -
23/09:00am 14.2 WNW 7 10 1018.3 R 0.0 Showers Mostly cloudy 25 - - - -
23/08:30am 13.4 NW 7 9 1018.1 - 0.0 - Mostly clear 10 - - - -
23/08:00am 11.9 WNW 7 9 1017.9 - 0.0 - Mostly clear 10 - - - -
23/07:30am 9.6 NNW 2 4 1017.6 - 0.0 - Mostly clear 10 - - - -
23/07:00am 9.3 NW 7 8 1017.3 - 0.0 - Mostly clear 10 - - - -
23/06:30am 7.7 NW 5 7 1017.2 - 0.0 - Partly cloudy 10 - - - -
23/06:00am 7.0 NNE 5 6 1017.2 F 0.0 Fine Mostly cloudy 25 - - - -
23/05:30am 7.6 NW 2 3 1017.3 - 0.0 - - 10 - - - -
23/05:00am 7.8 NW 6 7 1017.3 - 0.0 - - 10 - - - -
23/04:30am 8.3 WNW 7 9 1017.1 - 0.0 - Partly cloudy 10 - - - -
23/04:00am 8.2 WNW 8 9 1017.0 - 0.0 - - 10 - - - -
23/03:30am 8.8 W 7 9 1017.1 - 0.0 - - 10 - - - -
23/03:00am 7.7 NW 7 9 1017.0 - 0.0 - - 10 - - - -
23/02:30am 7.9 WNW 7 8 1017.3 - 0.0 - - 10 - - - -
23/02:00am 8.0 WNW 8 9 1017.6 - 0.0 - - 10 - - - -
23/01:30am 7.9 NW 6 7 1017.2 - 0.0 - - 10 - - - -
23/01:00am 8.6 NW 7 8 1017.4 - 0.0 - - 10 - - - -
23/12:30am 8.1 NW 7 8 1017.7 - 0.0 - - 10 - - - -
23/12:00am 8.4 NW 5 6 1017.8 - 0.0 - - 10 - - - -
 
Date/Time
WST
Temp

°C
Wind Pressure Rain
since 9am
mm
Weather Cloud Vis
km
Sea
Height
m
Swell
Dir
 
Speed
knots
Gust
knots
hPa Trend Height
m
Period
s
Dir
22/11:30pm 8.8 NW 6 7 1018.0 - 0.0 - - 10 - - - -
22/11:00pm 9.2 WNW 8 8 1018.2 - 0.0 - - 10 - - - -
22/10:30pm 9.3 NW 7 7 1018.7 - 0.0 - - 10 - - - -
22/10:00pm 9.5 WNW 8 8 1018.7 - 0.0 - - 10 - - - -
22/09:30pm 10.0 WNW 7 7 1018.7 - 0.0 - - 10 - - - -
22/09:00pm 10.7 WNW 8 9 1018.3 - 0.0 - - 10 - - - -
22/08:30pm 10.4 WNW 8 8 1018.3 - 0.0 - - 10 - - - -
22/08:00pm 11.1 W 6 7 1018.4 - 0.0 - - 10 - - - -
22/07:30pm 12.4 W 7 8 1018.3 - 0.0 - - 10 - - - -
22/07:00pm 13.5 W 6 6 1018.1 - 0.0 - - 10 - - - -
22/06:30pm 15.1 WSW 7 8 1017.9 - 0.0 - - 10 - - - -
22/06:00pm 15.5 WSW 7 9 1017.7 - 0.0 - - 10 - - - -
22/05:30pm 17.1 SW 9 11 1017.6 - 0.0 - - 10 - - - -
22/05:00pm 18.6 WSW 10 13 1017.6 - 0.0 - - 10 - - - -
22/04:30pm 19.6 WSW 11 14 1017.7 - 0.0 - - 10 - - - -
22/04:00pm 20.5 WSW 10 13 1017.8 - 0.0 - Partly cloudy 10 - - - -
22/03:30pm 20.8 W 11 14 1018.0 - 0.0 - - 10 - - - -
22/03:00pm 21.1 W 9 12 1018.1 F 0.0 Fine Mostly clear 40 - - - -
22/02:30pm 21.3 WNW 13 15 1018.1 - 0.0 - Mostly clear 10 - - - -
22/02:00pm 20.5 W 11 16 1018.2 - 0.0 - Mostly clear 10 - - - -
22/01:30pm 21.0 W 12 15 1018.5 - 0.0 - Partly cloudy 10 - - - -

Other Formats:

Comma delimited format used in spreadsheet applications
http://www.bom.gov.au/fwo/IDW60701/IDW60701.94802.axf

JavaScript Object Notation format (JSON) in row-major order
http://www.bom.gov.au/fwo/IDW60701/IDW60701.94802.json